Time;durP1;ratioP1;P1;durP2;ratioP2;P2;SDS_P1;SDS_P2;PMS_P1;PMS_P2;Temp;Humidity;BMP_temperature;BMP_pressure;BME280_temperature;BME280_humidity;BME280_pressure;Samples;Min_cycle;Max_cycle;Signal;HPM_P1;HPM_P2
2022/06/30 00:00:12;;;;;;;2.23;2.00;;;18.20;99.90;;;;;;5043687;28;20600;-50
2022/06/30 00:02:40;;;;;;;1.93;1.80;;;18.10;99.90;;;;;;5039613;28;21022;-46
2022/06/30 00:05:09;;;;;;;2.03;1.50;;;18.10;99.90;;;;;;5043443;28;20310;-48
2022/06/30 00:07:36;;;;;;;1.70;1.60;;;18.00;99.90;;;;;;5039529;28;20222;-47
2022/06/30 00:10:04;;;;;;;2.30;2.10;;;18.00;99.90;;;;;;5039592;28;20674;-46
2022/06/30 00:12:30;;;;;;;2.97;1.87;;;18.00;99.90;;;;;;5024898;28;20221;-47
2022/06/30 00:14:57;;;;;;;3.27;2.07;;;18.00;99.90;;;;;;5042109;28;20199;-46
2022/06/30 00:17:24;;;;;;;1.93;1.80;;;18.00;99.90;;;;;;5041928;28;20714;-47
2022/06/30 00:19:52;;;;;;;2.63;1.63;;;17.90;99.90;;;;;;5041628;28;20277;-45
2022/06/30 00:22:20;;;;;;;1.60;1.50;;;17.80;99.90;;;;;;5042873;28;20223;-45
2022/06/30 00:24:47;;;;;;;2.30;1.70;;;17.80;99.90;;;;;;5040152;28;20222;-43
2022/06/30 00:27:15;;;;;;;2.23;1.70;;;17.80;99.90;;;;;;5043276;28;20195;-45
2022/06/30 00:29:43;;;;;;;3.00;2.03;;;17.80;99.90;;;;;;5024879;28;20234;-44
2022/06/30 00:32:10;;;;;;;1.80;1.70;;;17.80;99.90;;;;;;5043227;28;20226;-49
2022/06/30 00:34:37;;;;;;;2.10;1.90;;;17.70;99.90;;;;;;5039022;28;20277;-44
2022/06/30 00:37:05;;;;;;;2.27;1.70;;;17.70;99.90;;;;;;5043482;28;20234;-49
2022/06/30 00:39:33;;;;;;;3.00;1.63;;;17.70;99.90;;;;;;5035314;28;20651;-46
2022/06/30 00:42:01;;;;;;;3.80;2.17;;;17.70;99.90;;;;;;5042404;28;20199;-45
2022/06/30 00:44:30;;;;;;;2.63;1.90;;;;;;;;;;5025539;28;20227;-48
2022/06/30 00:46:57;;;;;;;7.77;1.97;;;17.70;99.90;;;;;;5036619;28;20196;-45
2022/06/30 00:49:25;;;;;;;1.93;1.77;;;17.70;99.90;;;;;;5041855;28;20211;-47
2022/06/30 00:51:52;;;;;;;2.57;1.90;;;17.70;99.90;;;;;;5041172;28;20266;-47
2022/06/30 00:54:21;;;;;;;2.03;1.93;;;17.60;99.90;;;;;;5041288;28;20195;-49
2022/06/30 00:56:51;;;;;;;3.63;2.00;;;17.60;99.90;;;;;;5034810;28;20203;-45
2022/06/30 00:59:18;;;;;;;3.80;1.70;;;17.60;99.90;;;;;;5026682;28;20207;-46
2022/06/30 01:01:46;;;;;;;1.97;1.87;;;17.60;99.90;;;;;;5039106;28;20195;-47
2022/06/30 01:04:14;;;;;;;3.53;1.90;;;17.60;99.90;;;;;;5043874;28;20203;-45
2022/06/30 01:06:44;;;;;;;3.13;1.73;;;17.60;99.90;;;;;;5043008;28;20203;-45
2022/06/30 01:09:11;;;;;;;2.83;2.07;;;17.50;99.90;;;;;;5044869;28;20203;-44
2022/06/30 01:14:24;;;;;;;1.90;1.80;;;17.50;99.90;;;;;;5030627;28;20695;-46
2022/06/30 01:16:51;;;;;;;5.10;2.50;;;17.50;99.90;;;;;;5044255;28;20253;-45
2022/06/30 01:19:18;;;;;;;2.43;1.80;;;17.50;99.90;;;;;;5046389;28;20249;-47
2022/06/30 01:22:01;;;;;;;2.20;2.00;;;17.50;99.90;;;;;;5043227;28;20203;-45
2022/06/30 01:24:28;;;;;;;4.57;2.10;;;17.50;99.90;;;;;;5043932;28;20215;-48
2022/06/30 01:26:57;;;;;;;2.03;1.93;;;17.50;99.90;;;;;;5045276;28;20195;-45
2022/06/30 01:29:24;;;;;;;2.47;1.60;;;17.50;99.90;;;;;;5023207;28;20729;-48
2022/06/30 01:31:51;;;;;;;2.53;2.00;;;17.50;99.90;;;;;;5043300;28;20195;-47
2022/06/30 01:34:18;;;;;;;2.07;1.83;;;17.50;99.90;;;;;;5039488;28;20210;-49
2022/06/30 01:36:45;;;;;;;2.30;2.07;;;17.50;99.90;;;;;;5036522;28;20257;-47
2022/06/30 01:39:13;;;;;;;3.33;1.97;;;17.40;99.90;;;;;;5046292;28;20191;-45
2022/06/30 01:41:40;;;;;;;2.10;1.90;;;17.40;99.90;;;;;;5039990;28;20203;-46
2022/06/30 01:44:07;;;;;;;1.97;1.87;;;17.40;99.90;;;;;;5024341;28;20703;-49
2022/06/30 01:46:34;;;;;;;1.77;1.67;;;17.30;99.90;;;;;;5039494;28;20206;-45
2022/06/30 01:49:01;;;;;;;1.83;1.73;;;17.30;99.90;;;;;;5046156;28;20582;-49
2022/06/30 01:51:28;;;;;;;2.40;2.20;;;17.20;99.90;;;;;;5043663;28;20207;-49
2022/06/30 01:53:56;;;;;;;5.93;2.00;;;17.20;99.90;;;;;;5044520;28;20208;-51
2022/06/30 01:56:24;;;;;;;2.40;1.70;;;17.10;99.90;;;;;;5045002;28;20660;-46
2022/06/30 01:58:51;;;;;;;2.57;2.33;;;17.20;99.90;;;;;;5043964;28;20188;-47
2022/06/30 02:01:19;;;;;;;1.80;1.70;;;17.10;99.90;;;;;;5027379;28;20218;-46
2022/06/30 02:03:45;;;;;;;2.40;2.20;;;17.10;99.90;;;;;;5042140;28;20298;-46
2022/06/30 02:06:13;;;;;;;3.20;2.50;;;17.00;99.90;;;;;;5045610;28;20227;-46
2022/06/30 02:08:39;;;;;;;2.00;1.90;;;17.00;99.90;;;;;;5041777;28;20272;-45
2022/06/30 02:11:07;;;;;;;3.13;2.40;;;17.00;99.90;;;;;;5045633;28;20709;-45
2022/06/30 02:13:35;;;;;;;2.30;1.97;;;16.90;99.90;;;;;;5041443;28;20211;-46
2022/06/30 02:16:02;;;;;;;2.80;1.87;;;16.90;99.90;;;;;;5030670;28;20616;-50
2022/06/30 02:18:29;;;;;;;2.33;2.13;;;16.90;99.90;;;;;;5042903;28;20210;-48
2022/06/30 02:20:57;;;;;;;2.37;2.23;;;16.90;99.90;;;;;;5044500;28;20192;-47
2022/06/30 02:23:24;;;;;;;2.20;2.10;;;16.80;99.90;;;;;;5043605;28;20734;-48
2022/06/30 02:25:51;;;;;;;3.13;1.90;;;16.70;99.90;;;;;;5043283;28;20219;-46
2022/06/30 02:28:18;;;;;;;2.93;1.90;;;16.70;99.90;;;;;;5045098;28;20204;-49
2022/06/30 02:30:46;;;;;;;3.03;2.47;;;16.70;99.90;;;;;;5026583;28;20951;-48
2022/06/30 02:33:15;;;;;;;2.23;2.03;;;16.70;99.90;;;;;;5044677;28;20219;-46
2022/06/30 02:35:42;;;;;;;2.47;2.07;;;16.60;99.90;;;;;;5035046;28;20202;-48
2022/06/30 02:38:10;;;;;;;2.50;2.30;;;16.60;99.90;;;;;;5036783;28;20210;-46
2022/06/30 02:40:37;;;;;;;2.30;2.20;;;16.60;99.90;;;;;;5038406;28;20194;-47
2022/06/30 02:43:04;;;;;;;4.43;2.10;;;16.60;99.90;;;;;;5038625;28;20302;-46
2022/06/30 02:45:31;;;;;;;3.00;2.07;;;16.50;99.90;;;;;;5023488;28;20247;-47
2022/06/30 02:47:59;;;;;;;3.03;2.50;;;16.50;99.90;;;;;;5041806;28;20207;-47
2022/06/30 02:50:26;;;;;;;2.60;2.40;;;16.50;99.90;;;;;;5039288;28;20238;-48
2022/06/30 02:52:54;;;;;;;4.70;2.40;;;;;;;;;;5036910;28;20211;-46
2022/06/30 02:55:21;;;;;;;2.63;2.47;;;;;;;;;;5037065;28;20203;-46
2022/06/30 02:57:48;;;;;;;3.50;2.53;;;16.50;99.90;;;;;;5035873;28;20191;-46
2022/06/30 03:00:17;;;;;;;2.70;2.50;;;;;;;;;;5044918;28;20544;-46
2022/06/30 03:02:46;;;;;;;3.50;2.60;;;16.30;99.90;;;;;;5028911;28;20211;-53
2022/06/30 03:05:14;;;;;;;2.87;2.43;;;16.30;99.90;;;;;;5037955;28;20215;-46
2022/06/30 03:07:41;;;;;;;2.77;2.57;;;16.20;99.90;;;;;;5034931;28;20871;-47
2022/06/30 03:10:08;;;;;;;2.90;2.63;;;16.20;99.90;;;;;;5037374;28;20207;-48
2022/06/30 03:12:35;;;;;;;2.33;2.20;;;16.30;99.90;;;;;;5036710;28;20215;-50
2022/06/30 03:15:02;;;;;;;2.57;2.40;;;16.20;99.90;;;;;;5043922;28;20195;-46
2022/06/30 03:17:29;;;;;;;3.40;2.83;;;16.20;99.90;;;;;;5026290;28;20214;-49
2022/06/30 03:19:56;;;;;;;2.50;2.30;;;16.20;99.90;;;;;;5034509;28;20199;-46
2022/06/30 03:22:24;;;;;;;2.87;2.67;;;16.20;99.90;;;;;;5034495;28;20625;-46
2022/06/30 03:24:51;;;;;;;2.40;2.20;;;16.10;99.90;;;;;;5037498;28;20195;-46
2022/06/30 03:27:19;;;;;;;4.23;3.47;;;16.10;99.90;;;;;;5037053;28;20203;-49
2022/06/30 03:29:46;;;;;;;3.47;2.90;;;16.10;99.90;;;;;;5033904;28;20934;-46
2022/06/30 03:32:12;;;;;;;3.40;3.10;;;16.10;99.90;;;;;;5024782;28;20230;-47
2022/06/30 03:34:39;;;;;;;2.97;2.60;;;16.00;99.90;;;;;;5035707;28;20968;-49
2022/06/30 03:37:06;;;;;;;3.27;2.97;;;16.10;99.90;;;;;;5028438;28;20207;-44
2022/06/30 03:39:35;;;;;;;4.87;3.10;;;16.10;99.90;;;;;;5040177;28;20199;-47
2022/06/30 03:42:02;;;;;;;2.83;2.60;;;16.10;99.90;;;;;;5035140;28;20563;-46
2022/06/30 03:44:29;;;;;;;3.30;3.00;;;16.10;99.90;;;;;;5034613;28;20203;-45
2022/06/30 03:46:56;;;;;;;3.53;2.90;;;16.10;99.90;;;;;;5021871;28;20215;-46
2022/06/30 03:49:24;;;;;;;3.20;2.87;;;16.10;99.90;;;;;;5023456;28;20204;-45
2022/06/30 03:51:50;;;;;;;3.67;2.70;;;16.10;99.90;;;;;;5030842;28;20195;-48
2022/06/30 03:54:19;;;;;;;3.03;2.73;;;16.10;99.90;;;;;;5033476;28;20594;-49
2022/06/30 03:56:47;;;;;;;3.17;2.73;;;16.10;99.90;;;;;;5033990;28;20203;-45
2022/06/30 03:59:14;;;;;;;3.23;2.90;;;16.10;99.90;;;;;;5035579;28;20196;-48
2022/06/30 04:01:41;;;;;;;3.13;2.70;;;16.10;99.90;;;;;;5015763;28;20211;-45
2022/06/30 04:04:08;;;;;;;3.83;3.23;;;16.20;99.90;;;;;;5033017;28;20752;-48
2022/06/30 04:06:35;;;;;;;2.93;2.73;;;16.10;99.90;;;;;;5038328;28;20247;-48
2022/06/30 04:09:01;;;;;;;3.50;2.77;;;16.10;99.90;;;;;;5032129;28;20250;-48
2022/06/30 04:11:28;;;;;;;3.27;2.97;;;16.10;99.90;;;;;;5039738;28;20200;-51
2022/06/30 04:13:57;;;;;;;2.93;2.73;;;16.10;99.90;;;;;;5042193;28;20223;-46
2022/06/30 04:16:23;;;;;;;4.13;3.17;;;16.20;99.90;;;;;;5040027;28;20198;-45
2022/06/30 04:18:50;;;;;;;4.20;2.97;;;16.20;99.90;;;;;;5023702;28;20363;-44
2022/06/30 04:21:17;;;;;;;3.80;3.10;;;16.20;99.90;;;;;;5026402;28;20203;-48
2022/06/30 04:23:45;;;;;;;4.27;3.50;;;16.20;99.90;;;;;;5030323;28;20223;-46
2022/06/30 04:26:11;;;;;;;3.67;3.10;;;16.30;99.90;;;;;;5029338;28;20223;-46
2022/06/30 04:28:38;;;;;;;3.70;3.10;;;16.30;99.90;;;;;;5035538;28;20544;-47
2022/06/30 04:33:51;;;;;;;4.23;3.07;;;16.50;99.90;;;;;;5022696;28;20227;-46
2022/06/30 04:36:18;;;;;;;2.90;2.70;;;16.50;99.90;;;;;;5028426;28;20198;-49
2022/06/30 04:38:45;;;;;;;3.10;2.60;;;16.60;99.90;;;;;;5030033;28;20203;-45
2022/06/30 04:41:27;;;;;;;5.83;3.73;;;16.60;99.90;;;;;;5034681;28;20203;-47
2022/06/30 04:43:54;;;;;;;4.50;3.37;;;16.70;99.90;;;;;;5039472;28;20710;-49
2022/06/30 04:46:22;;;;;;;4.80;3.20;;;16.70;99.90;;;;;;5042263;28;20214;-46
2022/06/30 04:48:49;;;;;;;3.60;3.30;;;16.80;99.90;;;;;;5026815;28;20226;-48
2022/06/30 04:51:16;;;;;;;3.40;3.10;;;16.80;99.90;;;;;;5042376;28;20302;-51
2022/06/30 04:53:44;;;;;;;3.30;3.00;;;16.90;99.90;;;;;;5044115;28;20218;-46
2022/06/30 04:56:11;;;;;;;3.40;3.10;;;16.90;99.90;;;;;;5030571;28;20203;-48
2022/06/30 04:58:39;;;;;;;3.10;2.90;;;16.90;99.90;;;;;;5039799;28;20203;-47
2022/06/30 05:01:06;;;;;;;3.97;3.60;;;17.00;99.90;;;;;;5036820;28;20199;-48
2022/06/30 05:03:34;;;;;;;5.20;3.30;;;17.00;99.90;;;;;;5043098;28;20223;-50
2022/06/30 05:06:01;;;;;;;3.60;3.23;;;17.10;99.90;;;;;;5029400;28;20211;-50
2022/06/30 05:08:28;;;;;;;6.97;3.53;;;17.10;99.90;;;;;;5035234;28;20207;-48
2022/06/30 05:10:55;;;;;;;3.50;3.20;;;17.20;99.90;;;;;;5034244;28;20213;-49
2022/06/30 05:13:22;;;;;;;4.00;3.60;;;17.20;99.90;;;;;;5043530;28;20215;-49
2022/06/30 05:15:49;;;;;;;5.30;3.73;;;17.30;99.90;;;;;;5031156;28;20567;-47
2022/06/30 05:18:17;;;;;;;3.73;3.13;;;17.30;99.90;;;;;;5036094;28;20195;-49
2022/06/30 05:20:44;;;;;;;4.50;3.37;;;17.30;99.90;;;;;;5031273;28;20257;-47
2022/06/30 05:23:12;;;;;;;6.37;3.40;;;17.40;99.90;;;;;;5039207;28;20226;-51
2022/06/30 05:28:24;;;;;;;5.73;3.00;;;17.60;99.90;;;;;;5029872;28;20241;-52
2022/06/30 05:30:52;;;;;;;4.50;3.20;;;17.70;99.90;;;;;;5037983;28;20664;-47
2022/06/30 05:33:19;;;;;;;4.00;3.03;;;17.70;99.90;;;;;;5041809;28;20321;-49
2022/06/30 05:35:49;;;;;;;4.93;3.70;;;17.80;99.90;;;;;;5030120;28;20657;-50
2022/06/30 05:38:16;;;;;;;3.90;3.10;;;17.90;99.90;;;;;;5036555;28;20258;-49
2022/06/30 05:40:45;;;;;;;3.07;2.87;;;17.90;99.90;;;;;;5045410;28;20203;-51
2022/06/30 05:43:13;;;;;;;3.90;3.23;;;18.00;99.90;;;;;;5034492;28;20888;-53
2022/06/30 05:45:40;;;;;;;4.33;2.87;;;18.10;99.90;;;;;;5036209;28;20208;-50
2022/06/30 05:48:08;;;;;;;5.87;3.30;;;18.20;99.90;;;;;;5039840;28;20202;-47
2022/06/30 05:50:35;;;;;;;3.77;3.27;;;18.20;99.90;;;;;;5027342;28;20258;-47
2022/06/30 05:53:03;;;;;;;3.00;2.80;;;18.30;99.90;;;;;;5040665;28;20637;-49
2022/06/30 05:55:30;;;;;;;5.20;3.47;;;18.30;99.90;;;;;;5034247;28;20201;-47
2022/06/30 05:58:01;;;;;;;5.87;3.33;;;18.30;99.90;;;;;;5031649;28;20581;-48
2022/06/30 06:00:29;;;;;;;4.03;3.30;;;18.30;99.90;;;;;;5030147;28;20277;-47
2022/06/30 06:02:57;;;;;;;2.87;2.63;;;18.30;99.90;;;;;;5038010;28;20233;-48
2022/06/30 06:05:25;;;;;;;4.47;3.00;;;18.30;99.90;;;;;;5023355;28;20325;-51
2022/06/30 06:07:52;;;;;;;3.50;3.03;;;18.30;99.90;;;;;;5043990;28;20707;-49
2022/06/30 06:10:21;;;;;;;6.07;3.17;;;18.30;99.90;;;;;;5038451;28;20192;-50
2022/06/30 06:12:49;;;;;;;4.87;3.57;;;18.30;99.90;;;;;;5044490;28;20751;-51
2022/06/30 06:15:16;;;;;;;4.27;3.00;;;18.30;99.90;;;;;;5035912;28;20219;-47
2022/06/30 06:17:45;;;;;;;3.10;2.90;;;18.40;99.90;;;;;;5033393;28;20204;-51
2022/06/30 06:20:14;;;;;;;5.13;3.40;;;18.40;99.90;;;;;;5036558;28;20192;-47
2022/06/30 06:22:42;;;;;;;3.27;3.07;;;18.50;99.90;;;;;;5023632;28;20227;-49
2022/06/30 06:25:10;;;;;;;3.47;3.17;;;18.50;99.90;;;;;;5037136;28;20199;-51
2022/06/30 06:27:39;;;;;;;4.07;3.17;;;18.50;99.90;;;;;;5035709;28;20262;-51
2022/06/30 06:30:08;;;;;;;3.83;2.77;;;18.60;99.90;;;;;;5041936;28;20207;-52
2022/06/30 06:32:35;;;;;;;3.53;3.20;;;18.80;99.90;;;;;;5037911;28;20306;-47
2022/06/30 06:35:05;;;;;;;3.43;3.13;;;18.90;99.90;;;;;;5041927;28;20678;-50
2022/06/30 06:37:32;;;;;;;4.50;3.03;;;19.10;99.90;;;;;;5026171;28;20206;-47
2022/06/30 06:40:00;;;;;;;5.00;3.27;;;19.30;99.90;;;;;;5041278;28;20199;-49
2022/06/30 06:42:26;;;;;;;3.73;3.17;;;19.40;99.90;;;;;;5042955;28;20272;-47
2022/06/30 06:44:55;;;;;;;6.70;3.00;;;19.50;99.90;;;;;;5042897;28;20249;-50
2022/06/30 06:47:23;;;;;;;4.57;3.23;;;19.70;99.90;;;;;;5036805;28;20225;-47
2022/06/30 06:49:49;;;;;;;4.33;3.53;;;19.80;99.90;;;;;;5044778;28;20256;-47
2022/06/30 06:52:16;;;;;;;3.33;2.90;;;19.90;99.90;;;;;;5025412;28;21736;-47
2022/06/30 06:54:43;;;;;;;4.27;3.30;;;20.10;99.90;;;;;;5040432;28;20726;-49
2022/06/30 06:57:10;;;;;;;3.53;2.97;;;20.20;99.90;;;;;;5033218;28;20207;-48
2022/06/30 06:59:37;;;;;;;3.83;3.23;;;20.30;99.90;;;;;;5038245;28;20203;-48
2022/06/30 07:02:07;;;;;;;3.50;3.10;;;20.40;99.90;;;;;;5035898;28;20687;-47
2022/06/30 07:04:33;;;;;;;7.30;2.60;;;20.50;99.90;;;;;;5032025;28;20199;-51
2022/06/30 07:07:00;;;;;;;4.10;3.70;;;20.60;99.90;;;;;;5039492;28;20223;-47
2022/06/30 07:09:26;;;;;;;5.40;3.10;;;20.60;99.90;;;;;;5027806;28;20211;-50
2022/06/30 07:11:53;;;;;;;3.93;2.53;;;20.60;99.90;;;;;;5043625;28;20199;-47
2022/06/30 07:14:20;;;;;;;3.10;2.90;;;20.60;99.90;;;;;;5034495;28;21008;-48
2022/06/30 07:16:47;;;;;;;4.70;3.07;;;20.70;99.90;;;;;;5044685;28;20200;-48
2022/06/30 07:19:15;;;;;;;4.17;3.30;;;20.70;99.90;;;;;;5034007;28;20264;-47
2022/06/30 07:21:42;;;;;;;4.80;2.90;;;20.80;99.90;;;;;;5038232;28;20283;-50
2022/06/30 07:24:09;;;;;;;3.27;3.07;;;20.80;99.90;;;;;;5022702;28;20715;-51
2022/06/30 07:26:36;;;;;;;4.73;3.10;;;20.90;99.90;;;;;;5041327;28;20231;-47
2022/06/30 07:29:03;;;;;;;4.43;3.30;;;21.00;99.90;;;;;;5037926;28;20204;-50
2022/06/30 07:31:30;;;;;;;4.87;3.10;;;21.10;99.90;;;;;;5041299;28;20207;-47
2022/06/30 07:33:57;;;;;;;5.10;3.43;;;21.20;99.90;;;;;;5039690;28;20223;-50
2022/06/30 07:36:25;;;;;;;4.37;2.80;;;21.30;99.90;;;;;;5037975;28;20199;-47
2022/06/30 07:38:52;;;;;;;3.60;3.03;;;21.30;99.90;;;;;;5040821;28;20264;-51
2022/06/30 07:41:19;;;;;;;3.57;3.13;;;21.40;99.90;;;;;;5029270;28;20197;-47
2022/06/30 07:43:46;;;;;;;7.17;3.20;;;21.50;99.90;;;;;;5043205;28;20215;-46
2022/06/30 07:46:14;;;;;;;4.87;3.07;;;21.50;99.90;;;;;;5032265;28;20208;-47
2022/06/30 07:48:41;;;;;;;3.70;3.00;;;21.60;99.90;;;;;;5044007;28;20286;-53
2022/06/30 07:51:08;;;;;;;6.83;3.40;;;21.70;99.90;;;;;;5032797;28;20683;-50
2022/06/30 07:53:37;;;;;;;4.60;3.13;;;21.80;99.90;;;;;;5043425;28;20223;-47
2022/06/30 07:56:04;;;;;;;3.63;2.97;;;21.90;99.90;;;;;;5026210;28;20211;-47
2022/06/30 07:58:33;;;;;;;3.20;2.80;;;21.90;99.90;;;;;;5042801;28;20210;-51
2022/06/30 08:01:01;;;;;;;4.57;3.57;;;22.00;99.90;;;;;;5030728;28;20234;-48
2022/06/30 08:03:28;;;;;;;4.37;3.07;;;22.10;99.90;;;;;;5041270;28;20968;-48
2022/06/30 08:05:55;;;;;;;3.47;3.10;;;22.10;99.90;;;;;;5029948;28;20208;-51
2022/06/30 08:08:22;;;;;;;5.33;3.40;;;22.10;99.90;;;;;;5030479;28;20226;-47
2022/06/30 08:10:51;;;;;;;3.40;3.10;;;22.20;99.90;;;;;;5023968;28;20207;-47
2022/06/30 08:13:17;;;;;;;5.13;3.03;;;22.30;99.90;;;;;;5038902;28;20243;-47
2022/06/30 08:15:44;;;;;;;2.90;2.70;;;22.40;99.90;;;;;;5043033;28;20211;-48
2022/06/30 08:18:11;;;;;;;2.93;2.73;;;22.50;99.90;;;;;;5032387;28;20191;-47
2022/06/30 08:20:39;;;;;;;3.23;2.77;;;22.60;99.90;;;;;;5035649;28;20594;-46
2022/06/30 08:23:06;;;;;;;3.57;3.27;;;22.70;99.90;;;;;;5039846;28;20284;-49
2022/06/30 08:25:32;;;;;;;3.83;3.27;;;22.90;99.90;;;;;;5027986;28;20203;-46
2022/06/30 08:28:03;;;;;;;3.30;2.80;;;22.90;99.90;;;;;;5040674;28;20436;-48
2022/06/30 08:30:30;;;;;;;3.13;2.80;;;23.00;99.90;;;;;;5042376;28;20202;-48
2022/06/30 08:32:57;;;;;;;3.57;3.13;;;23.10;99.90;;;;;;5030310;28;20235;-47
2022/06/30 08:35:24;;;;;;;3.38;3.05;;;23.20;99.90;;;;;;5040737;28;20195;-47
2022/06/30 08:37:51;;;;;;;3.30;2.97;;;23.30;99.90;;;;;;5036775;28;20432;-48
2022/06/30 08:43:04;;;;;;;3.03;2.58;;;23.50;99.90;;;;;;5037715;28;20222;-48
2022/06/30 08:45:31;;;;;;;3.60;2.53;;;23.60;99.90;;;;;;5040780;28;20738;-50
2022/06/30 08:47:57;;;;;;;4.20;3.07;;;23.70;99.90;;;;;;5026133;28;20478;-52
2022/06/30 08:50:24;;;;;;;3.08;2.78;;;24.00;99.90;;;;;;5040497;28;21086;-49
2022/06/30 08:52:54;;;;;;;2.95;2.33;;;24.10;99.90;;;;;;5032788;28;20340;-47
2022/06/30 08:55:25;;;;;;;4.18;2.65;;;24.00;99.90;;;;;;5017883;28;20950;-47
2022/06/30 08:57:55;;;;;;;3.53;2.40;;;24.10;99.90;;;;;;5037588;28;20274;-47
2022/06/30 09:00:23;;;;;;;3.50;2.35;;;24.20;99.90;;;;;;5040294;28;20203;-51
2022/06/30 09:02:51;;;;;;;2.40;2.22;;;24.20;99.90;;;;;;5030144;28;20219;-44
2022/06/30 09:05:18;;;;;;;2.35;2.25;;;24.30;99.90;;;;;;5039370;28;20198;-45
2022/06/30 09:07:44;;;;;;;2.40;2.20;;;24.40;99.90;;;;;;5032291;28;20215;-45
2022/06/30 09:10:11;;;;;;;3.03;2.00;;;24.50;99.30;;;;;;5032389;28;20214;-45
2022/06/30 09:12:38;;;;;;;2.45;2.25;;;24.60;98.90;;;;;;5024834;28;20227;-47
2022/06/30 09:15:07;;;;;;;3.40;2.58;;;24.70;98.30;;;;;;5033067;28;20203;-47
2022/06/30 09:17:35;;;;;;;3.65;2.10;;;24.70;98.10;;;;;;5037240;28;20195;-46
2022/06/30 09:20:04;;;;;;;2.28;2.08;;;24.80;97.50;;;;;;5035298;28;20211;-47
2022/06/30 09:22:34;;;;;;;2.40;2.20;;;24.80;97.30;;;;;;5032451;28;20223;-46
2022/06/30 09:25:03;;;;;;;3.85;2.33;;;25.00;97.40;;;;;;5038354;28;20844;-47
2022/06/30 09:27:33;;;;;;;3.45;2.25;;;25.00;96.30;;;;;;5027883;28;20223;-45
2022/06/30 09:30:04;;;;;;;3.15;2.13;;;25.00;95.70;;;;;;5043911;28;20664;-49
2022/06/30 09:32:32;;;;;;;2.25;1.92;;;25.00;96.10;;;;;;5039233;28;20261;-48
2022/06/30 09:35:10;;;;;;;4.80;2.63;;;25.00;95.50;;;;;;5034466;28;20623;-52
2022/06/30 09:37:38;;;;;;;2.95;2.00;;;25.00;95.70;;;;;;5045173;28;20727;-47
2022/06/30 09:40:07;;;;;;;5.72;2.05;;;25.10;95.30;;;;;;5034968;28;20214;-46
2022/06/30 09:42:39;;;;;;;3.60;2.08;;;25.10;95.20;;;;;;5026902;28;20211;-48
2022/06/30 09:45:08;;;;;;;2.92;2.13;;;25.20;95.50;;;;;;5041735;28;20240;-46
2022/06/30 09:47:37;;;;;;;2.97;1.98;;;25.30;94.60;;;;;;5046086;28;20226;-49
2022/06/30 09:50:06;;;;;;;2.22;2.03;;;25.30;93.90;;;;;;5032420;28;20213;-45
2022/06/30 09:52:35;;;;;;;2.47;2.20;;;25.40;93.40;;;;;;5041924;28;20231;-48
2022/06/30 09:55:04;;;;;;;2.05;1.90;;;25.40;93.40;;;;;;5033781;28;20199;-46
2022/06/30 09:57:36;;;;;;;2.28;2.10;;;25.40;93.30;;;;;;5024338;28;20215;-45
2022/06/30 10:00:06;;;;;;;3.00;2.80;;;25.50;93.20;;;;;;5043142;28;20208;-46
2022/06/30 10:02:39;;;;;;;2.05;1.90;;;25.60;93.20;;;;;;5039846;28;20280;-44
2022/06/30 10:05:07;;;;;;;2.95;2.08;;;25.70;92.90;;;;;;5037604;28;20199;-47
2022/06/30 10:07:38;;;;;;;2.28;2.08;;;25.80;92.30;;;;;;5042404;28;20306;-44
2022/06/30 10:10:10;;;;;;;2.50;2.30;;;25.70;92.30;;;;;;5031569;28;20642;-46
2022/06/30 10:12:39;;;;;;;4.82;2.40;;;25.80;92.40;;;;;;5041600;28;20302;-47
2022/06/30 10:15:08;;;;;;;2.05;1.88;;;25.70;92.50;;;;;;5023085;28;20208;-45
2022/06/30 10:17:38;;;;;;;2.83;2.63;;;25.70;92.30;;;;;;5042739;28;20214;-44
2022/06/30 10:20:06;;;;;;;3.33;2.13;;;25.70;92.00;;;;;;5036430;28;20249;-45
2022/06/30 10:22:33;;;;;;;2.15;1.90;;;25.80;91.80;;;;;;5034106;28;20227;-46
2022/06/30 10:25:01;;;;;;;2.30;2.20;;;25.80;91.60;;;;;;5036246;28;20208;-48
2022/06/30 10:27:28;;;;;;;2.35;2.10;;;25.80;91.40;;;;;;5034697;28;20207;-45
2022/06/30 10:29:57;;;;;;;5.85;2.28;;;25.90;91.40;;;;;;5029204;28;20778;-47
2022/06/30 10:32:45;;;;;;;2.47;2.20;;;26.00;91.30;;;;;;5034014;28;20204;-44
2022/06/30 10:35:23;;;;;;;2.50;2.30;;;25.90;90.60;;;;;;5034448;28;20856;-44
2022/06/30 10:37:56;;;;;;;2.20;2.10;;;25.90;90.50;;;;;;5033693;28;20212;-45
2022/06/30 10:40:36;;;;;;;4.70;2.63;;;25.80;90.90;;;;;;5031603;28;20300;-44
2022/06/30 10:43:03;;;;;;;2.15;2.05;;;25.90;91.50;;;;;;5029772;28;20224;-44
2022/06/30 10:45:59;;;;;;;2.53;2.33;;;26.10;91.50;;;;;;5028999;28;20203;-44
2022/06/30 10:48:28;;;;;;;2.45;1.92;;;26.20;90.20;;;;;;5041889;28;20229;-51
2022/06/30 10:50:56;;;;;;;2.80;2.30;;;26.30;90.40;;;;;;5043884;28;20203;-45
2022/06/30 10:53:54;;;;;;;2.70;2.47;;;26.30;91.30;;;;;;5031601;28;20225;-45
2022/06/30 10:56:25;;;;;;;3.92;2.67;;;26.40;91.30;;;;;;5034118;28;20211;-44
2022/06/30 10:59:10;;;;;;;2.60;2.42;;;26.30;91.00;;;;;;5035048;28;20203;-46
2022/06/30 11:01:37;;;;;;;2.42;2.30;;;26.30;91.10;;;;;;5044288;28;20203;-46
2022/06/30 11:04:05;;;;;;;2.75;2.50;;;26.20;91.30;;;;;;5035799;28;20215;-50
2022/06/30 11:06:58;;;;;;;2.55;2.20;;;26.20;91.30;;;;;;5036908;28;20195;-47
2022/06/30 11:10:05;;;;;;;2.97;2.33;;;26.30;90.80;;;;;;5030625;28;20886;-49
2022/06/30 11:12:53;;;;;;;2.70;2.47;;;26.40;90.30;;;;;;5036862;28;20272;-45
2022/06/30 11:15:20;;;;;;;2.28;2.15;;;26.60;90.40;;;;;;5025393;28;20290;-45
2022/06/30 11:17:48;;;;;;;3.05;2.47;;;26.80;90.70;;;;;;5035706;28;20192;-44
2022/06/30 11:20:15;;;;;;;3.70;2.40;;;27.00;90.00;;;;;;5033023;28;20371;-45
2022/06/30 11:22:44;;;;;;;2.65;2.45;;;27.10;88.80;;;;;;5037858;28;20222;-46
2022/06/30 11:27:17;;;;;;;4.63;2.80;;;27.10;88.20;;;;;;5034612;28;20194;-46
2022/06/30 11:28:02;;;;;;;2.58;2.28;;;27.10;87.70;;;;;;5034898;28;20732;-45
2022/06/30 11:30:31;;;;;;;4.05;2.70;;;27.10;87.80;;;;;;5020107;28;20287;-45
2022/06/30 11:32:59;;;;;;;2.70;2.50;;;27.10;88.80;;;;;;5037636;28;20297;-49
2022/06/30 11:35:27;;;;;;;2.67;2.47;;;27.10;87.80;;;;;;5041608;28;20195;-46
2022/06/30 11:37:53;;;;;;;2.83;2.63;;;27.00;87.70;;;;;;5043322;28;20199;-47
2022/06/30 11:40:20;;;;;;;3.30;2.65;;;26.80;89.10;;;;;;5031588;28;20203;-45
2022/06/30 11:42:47;;;;;;;6.57;2.50;;;26.80;88.90;;;;;;5032768;28;20627;-46
2022/06/30 11:45:18;;;;;;;4.57;2.80;;;26.80;89.40;;;;;;5019444;28;20222;-44
2022/06/30 11:47:52;;;;;;;3.67;2.72;;;27.00;89.10;;;;;;5041598;28;20212;-47
2022/06/30 11:50:22;;;;;;;3.28;3.08;;;27.10;89.20;;;;;;5035907;28;20422;-45
2022/06/30 11:52:50;;;;;;;2.80;2.60;;;27.00;88.40;;;;;;5036060;28;20224;-47
2022/06/30 11:55:17;;;;;;;2.83;2.60;;;27.00;88.50;;;;;;5025568;28;20211;-44
2022/06/30 11:57:47;;;;;;;3.47;2.50;;;27.10;89.00;;;;;;5041918;28;20203;-44
2022/06/30 12:00:16;;;;;;;3.10;2.42;;;27.10;89.60;;;;;;5025034;28;20207;-47
2022/06/30 12:02:45;;;;;;;2.92;2.72;;;27.10;89.50;;;;;;5042200;28;20206;-47
2022/06/30 12:05:14;;;;;;;4.10;2.58;;;27.10;89.50;;;;;;5039321;28;20221;-48
2022/06/30 12:07:43;;;;;;;3.42;3.15;;;27.10;90.00;;;;;;5042019;28;20251;-49
2022/06/30 12:10:12;;;;;;;4.07;2.97;;;27.10;90.00;;;;;;5031712;28;20304;-45
2022/06/30 12:12:40;;;;;;;3.90;2.63;;;27.20;90.00;;;;;;5040065;28;20211;-49
2022/06/30 12:15:09;;;;;;;5.63;2.90;;;27.30;90.10;;;;;;5034809;28;20664;-48
2022/06/30 12:17:38;;;;;;;3.65;3.05;;;27.30;90.30;;;;;;5026094;28;20203;-48
2022/06/30 12:20:09;;;;;;;3.03;2.83;;;27.60;90.20;;;;;;5039752;28;20195;-47
2022/06/30 12:22:41;;;;;;;3.72;2.67;;;27.70;89.20;;;;;;5033771;28;20716;-46
2022/06/30 12:25:09;;;;;;;3.15;2.75;;;27.90;88.40;;;;;;5026790;28;20216;-51
2022/06/30 12:27:39;;;;;;;3.08;2.78;;;27.90;87.50;;;;;;5036853;28;20620;-48
2022/06/30 12:30:08;;;;;;;5.85;3.17;;;27.90;86.90;;;;;;5032454;28;20226;-46
2022/06/30 12:32:35;;;;;;;4.15;3.25;;;28.00;86.60;;;;;;5024443;28;20227;-46
2022/06/30 12:35:04;;;;;;;3.22;2.75;;;28.10;86.60;;;;;;5039671;28;20606;-48
2022/06/30 12:37:36;;;;;;;3.15;2.95;;;28.10;86.90;;;;;;5037416;28;20196;-45
2022/06/30 12:40:06;;;;;;;2.85;2.55;;;28.00;86.40;;;;;;5026026;28;20282;-48
2022/06/30 12:42:42;;;;;;;3.58;3.28;;;28.10;87.80;;;;;;5033722;28;20212;-48
2022/06/30 12:45:44;;;;;;;3.50;2.95;;;28.00;85.80;;;;;;5040246;28;20214;-47
2022/06/30 12:48:13;;;;;;;3.50;2.72;;;28.00;83.10;;;;;;5024121;28;20215;-46
2022/06/30 12:50:42;;;;;;;2.80;2.60;;;28.00;84.20;;;;;;5041701;28;20219;-49
2022/06/30 12:53:21;;;;;;;3.20;2.90;;;28.00;84.30;;;;;;5032727;28;20247;-48
2022/06/30 12:56:04;;;;;;;2.70;2.45;;;28.00;83.90;;;;;;5031844;28;20214;-46
2022/06/30 12:58:48;;;;;;;2.70;2.50;;;28.00;83.90;;;;;;5041761;28;20206;-45
2022/06/30 13:01:16;;;;;;;2.90;2.70;;;27.90;82.90;;;;;;5030895;28;20195;-47
2022/06/30 13:03:51;;;;;;;2.72;2.50;;;27.90;83.80;;;;;;5029917;28;20219;-46
2022/06/30 13:06:18;;;;;;;4.25;2.75;;;28.20;83.70;;;;;;5036581;28;20214;-47